메인 페이지
METAR-TAF:

METAR-TAF

공항 :

아타튀르크 국제공항

이스탄불 이스탄불, 터키

위도: 40-58N, 경도: 028-49E, 고도: 48m

현재 날씨관측

예보는 37분 전, 08:50시(UTC)에 발표되었습니다.
북동8kt북북동풍과 남동풍을 오가는
온도 8°C
습도 87%
기압 1014 hPa
시정: 6000m
고도 1100ft 상공 구름 많음
고도 4000ft 상공 구름 많음
약한비

METAR: LTBA 200850Z 05008KT 020V130 6000 -RA BKN011 BKN040 08/06 Q1014 NOSIG RMK RWY17L 05007KT 020V080 RWY05 07009KT RWY23 07008KT 020V110

시각: 12:27 (09:27 UTC)

예보

예보는 4 시간 47분 전, 04:40시(UTC)에 발표되었습니다.
예보 대상 시간: 20일 06시부터 21일 12시까지 (UTC)
북북동5kt
시정 10km 이상
고도 1100ft 상공 구름 보통
고도 10000ft 상공 구름 많음
전환 중
20일 06시부터 20일 09시까지 (UTC)
고도 1500ft 상공 구름 보통
고도 3300ft 상공 구름 많음
전환 중
20일 09시부터 20일 12시까지 (UTC)
북북동16kt
약한비
일시적
20일 20시부터 20일 24시까지 (UTC)
북북동18kt, 순간 최대 풍속 28kt
일시적
21일 02시부터 21일 06시까지 (UTC)
18kt, 순간 최대 풍속 30kt

TAF: LTBA 200440Z 2006/2112 03005KT 9999 SCT011 BKN100 BECMG 2006/2009 SCT015 BKN033 BECMG 2009/2012 03016KT -RA TEMPO 2020/2024 02018G28KT TEMPO 2102/2106 01018G30KT RA

4,000개 이상의 공항 관측 자료 및 예보 (METAR 및 TAF 보고).

지도상에서 검색 가능한 기상관측소가 노란 점과 빨간 점으로 표시되어 있습니다.

기상관측소 명을 보려면 표시 위로 마우스를 이동하세요.

날씨 관측과 예보를 보려면 클릭하세요.

지도 변경 : 확대하려면 엑스 표시가 있는 녹색 버튼, 축소하려면 빼기 표시가 있는 녹색 버튼, 다음 페이지의 지도를 보려면 녹색 화살표를 클릭하세요.


METAR-TAF: